Time;durP1;ratioP1;P1;durP2;ratioP2;P2;SDS_P1;SDS_P2;PMS_P1;PMS_P2;Temp;Humidity;BMP_temperature;BMP_pressure;BME280_temperature;BME280_humidity;BME280_pressure;Samples;Min_cycle;Max_cycle;Signal;HPM_P1;HPM_P2
2021/03/24 00:00:15;;;;;;;12.18;8.45;;;;;;;7.47;62.73;101910.31;692471;28;21523;-64
2021/03/24 00:00:39;;;;;;;11.95;8.63;;;;;;;7.48;62.76;101908.50;689726;28;63284;-65
2021/03/24 00:01:05;;;;;;;10.88;8.20;;;;;;;7.46;62.97;101911.31;686985;28;91476;-65
2021/03/24 00:01:26;;;;;;;12.50;8.73;;;;;;;7.47;62.90;101915.69;685624;28;137484;-64
2021/03/24 00:01:48;;;;;;;13.80;8.77;;;;;;;7.46;62.85;101911.31;689250;28;23553;-63
2021/03/24 00:02:10;;;;;;;12.45;8.35;;;;;;;7.46;62.99;101903.25;688971;28;46276;-64
2021/03/24 00:02:31;;;;;;;12.40;8.85;;;;;;;7.47;62.76;101910.31;688068;28;69268;-63
2021/03/24 00:02:54;;;;;;;12.32;8.77;;;;;;;7.47;63.08;101904.09;689778;28;21557;-63
2021/03/24 00:03:15;;;;;;;12.25;8.75;;;;;;;7.46;62.74;101908.63;688240;28;46311;-64
2021/03/24 00:03:37;;;;;;;10.90;8.55;;;;;;;7.48;62.83;101905.81;688964;28;19578;-64
2021/03/24 00:03:58;;;;;;;10.98;8.43;;;;;;;7.47;63.02;101907.63;688771;28;43319;-63
2021/03/24 00:04:19;;;;;;;10.38;8.48;;;;;;;7.48;62.87;101905.81;691902;28;23541;-63
2021/03/24 00:04:40;;;;;;;11.13;8.35;;;;;;;7.47;62.79;101904.94;692262;28;4281;-65
2021/03/24 00:05:01;;;;;;;12.30;8.20;;;;;;;7.48;62.58;101901.28;691198;28;8093;-64
2021/03/24 00:05:49;;;;;;;10.23;8.35;;;;;;;7.48;62.85;101905.81;687562;28;137079;-63
2021/03/24 00:06:11;;;;;;;10.38;8.10;;;;;;;7.47;62.99;101902.25;690026;28;45950;-64
2021/03/24 00:06:32;;;;;;;10.63;8.40;;;;;;;7.49;62.69;101910.19;690008;28;16570;-63
2021/03/24 00:06:53;;;;;;;11.80;8.25;;;;;;;7.49;62.61;101907.50;689786;28;10968;-62
2021/03/24 00:07:14;;;;;;;11.13;8.17;;;;;;;7.48;62.59;101905.81;689780;28;21597;-65
2021/03/24 00:07:35;;;;;;;10.45;7.95;;;;;;;7.47;62.67;101901.41;688769;28;46308;-64
2021/03/24 00:07:57;;;;;;;11.40;8.30;;;;;;;7.50;62.58;101906.53;690031;28;11719;-66
2021/03/24 00:08:19;;;;;;;9.73;7.90;;;;;;;7.50;62.51;101909.22;689226;28;16737;-63
2021/03/24 00:08:41;;;;;;;10.50;8.30;;;;;;;7.51;62.63;101908.25;688076;28;69433;-64
2021/03/24 00:09:04;;;;;;;10.07;8.32;;;;;;;7.51;62.69;101916.31;689104;28;42986;-63
2021/03/24 00:09:25;;;;;;;11.88;8.90;;;;;;;7.50;62.64;101911.91;684451;28;65632;-63
2021/03/24 00:09:47;;;;;;;11.77;8.20;;;;;;;7.49;62.75;101907.50;689977;28;1403;-63
2021/03/24 00:10:10;;;;;;;10.77;7.60;;;;;;;7.47;62.66;101902.25;689490;28;1766;-63
2021/03/24 00:10:33;;;;;;;9.95;7.50;;;;;;;7.50;62.84;101907.38;687678;28;40833;-63
2021/03/24 00:10:54;;;;;;;11.93;8.55;;;;;;;7.50;62.59;101909.22;688575;28;46361;-63
2021/03/24 00:11:16;;;;;;;12.48;8.48;;;;;;;7.49;62.78;101911.06;690925;28;1406;-62
2021/03/24 00:11:37;;;;;;;14.00;9.25;;;;;;;7.48;62.88;101909.34;687973;28;46455;-63
2021/03/24 00:11:58;;;;;;;12.88;8.73;;;;;;;7.49;62.64;101907.50;688093;28;22395;-62
2021/03/24 00:12:19;;;;;;;11.40;8.20;;;;;;;7.50;62.54;101910.06;687248;28;23708;-66
2021/03/24 00:12:42;;;;;;;12.43;8.65;;;;;;;7.50;62.49;101914.59;689062;28;1418;-63
2021/03/24 00:13:04;;;;;;;10.77;8.35;;;;;;;7.38;62.47;101886.88;688184;28;24130;-64
2021/03/24 00:13:25;;;;;;;10.68;8.40;;;;;;;7.51;62.57;101917.16;687318;28;46382;-64
2021/03/24 00:13:47;;;;;;;10.90;8.05;;;;;;;7.50;62.68;101910.06;689417;28;24663;-66
2021/03/24 00:14:08;;;;;;;10.73;8.23;;;;;;;7.50;62.69;101907.38;688726;28;46437;-63
2021/03/24 00:14:29;;;;;;;12.95;8.02;;;;;;;7.50;62.67;101910.06;689697;28;17744;-64
2021/03/24 00:14:50;;;;;;;13.13;8.77;;;;;;;7.50;62.67;101909.22;689189;28;22307;-64
2021/03/24 00:15:12;;;;;;;10.85;8.02;;;;;;;7.49;62.42;101905.69;690163;28;10000;-64
2021/03/24 00:15:34;;;;;;;13.25;8.05;;;;;;;7.49;62.63;101903.00;688386;28;41070;-62
2021/03/24 00:15:55;;;;;;;10.57;8.20;;;;;;;7.49;62.58;101904.81;688387;28;46419;-64
2021/03/24 00:16:16;;;;;;;9.38;8.02;;;;;;;7.47;62.44;101904.94;689631;28;22340;-64
2021/03/24 00:16:38;;;;;;;9.80;7.70;;;;;;;7.48;62.64;101914.72;688663;28;46272;-64
2021/03/24 00:16:59;;;;;;;8.95;7.55;;;;;;;7.48;62.63;101912.03;689300;28;22460;-63
2021/03/24 00:17:20;;;;;;;10.10;7.68;;;;;;;7.48;62.76;101908.50;691046;28;1567;-64
2021/03/24 00:17:41;;;;;;;10.10;8.13;;;;;;;7.46;62.53;101910.44;686172;28;22336;-62
2021/03/24 00:18:03;;;;;;;11.55;8.48;;;;;;;7.46;62.92;101902.38;686745;28;21518;-64
2021/03/24 00:18:25;;;;;;;12.15;8.57;;;;;;;7.45;62.74;101908.75;686003;28;46247;-64
2021/03/24 00:18:46;;;;;;;10.85;8.23;;;;;;;7.45;62.98;101914.97;685481;28;45509;-65
2021/03/24 00:19:07;;;;;;;10.30;7.80;;;;;;;7.45;63.02;101909.59;686516;28;22371;-64
2021/03/24 00:19:28;;;;;;;10.13;7.88;;;;;;;7.45;62.95;101914.13;687150;28;22404;-64
2021/03/24 00:19:49;;;;;;;10.30;8.07;;;;;;;7.46;62.85;101902.38;689181;28;22394;-64
2021/03/24 00:20:12;;;;;;;9.90;8.05;;;;;;;7.46;63.11;101911.31;689731;28;17976;-64
2021/03/24 00:20:36;;;;;;;12.35;8.93;;;;;;;7.45;63.02;101912.28;686685;28;92253;-63
2021/03/24 00:20:59;;;;;;;12.75;8.90;;;;;;;7.44;62.91;101909.72;686968;28;92307;-63
2021/03/24 00:21:20;;;;;;;11.23;8.73;;;;;;;7.42;62.93;101906.31;688798;28;45220;-64
2021/03/24 00:21:41;;;;;;;10.57;8.43;;;;;;;7.46;62.78;101907.75;689962;28;5676;-64
2021/03/24 00:22:03;;;;;;;12.13;8.47;;;;;;;7.46;62.99;101913.13;689107;28;22424;-63
2021/03/24 00:22:24;;;;;;;11.07;7.97;;;;;;;7.45;63.00;101906.06;687737;28;69708;-64
2021/03/24 00:22:46;;;;;;;10.95;8.57;;;;;;;7.45;62.81;101912.28;689207;28;22405;-61
2021/03/24 00:23:07;;;;;;;10.27;7.85;;;;;;;7.46;62.76;101907.75;689384;28;22272;-64
2021/03/24 00:23:28;;;;;;;9.68;7.88;;;;;;;7.46;63.00;101910.44;692187;28;1868;-65
2021/03/24 00:23:49;;;;;;;10.65;8.43;;;;;;;7.46;62.78;101899.69;691360;28;32223;-65
2021/03/24 00:24:11;;;;;;;11.27;8.60;;;;;;;7.46;62.74;101908.63;692210;28;21352;-65
2021/03/24 00:24:32;;;;;;;12.57;8.90;;;;;;;7.46;62.85;101905.94;692168;28;24334;-64
2021/03/24 00:24:53;;;;;;;12.13;8.88;;;;;;;7.47;62.66;101904.09;691704;28;22540;-65
2021/03/24 00:25:15;;;;;;;11.40;8.73;;;;;;;7.46;62.86;101903.25;692197;28;10794;-63
2021/03/24 00:25:36;;;;;;;11.93;8.70;;;;;;;7.47;62.69;101904.09;688346;28;44918;-65
2021/03/24 00:25:58;;;;;;;12.10;8.48;;;;;;;7.47;62.92;101898.72;688726;28;16492;-62
2021/03/24 00:26:19;;;;;;;11.43;8.18;;;;;;;7.45;62.73;101904.22;689226;28;42155;-65
2021/03/24 00:26:41;;;;;;;10.98;8.68;;;;;;;7.45;63.05;101906.06;690257;28;1123;-64
2021/03/24 00:27:04;;;;;;;11.40;8.77;;;;;;;7.44;62.83;101901.66;690481;28;1582;-64
2021/03/24 00:27:25;;;;;;;11.05;8.65;;;;;;;7.44;62.67;101901.66;688653;28;42767;-64
2021/03/24 00:27:49;;;;;;;10.32;8.20;;;;;;;7.44;62.96;101905.19;689471;28;22021;-64
2021/03/24 00:28:11;;;;;;;13.00;8.57;;;;;;;7.43;62.89;101902.63;686981;28;92439;-64
2021/03/24 00:28:32;;;;;;;12.25;8.73;;;;;;;7.43;62.79;101902.63;689063;28;36985;-64
2021/03/24 00:28:53;;;;;;;12.75;8.68;;;;;;;7.44;62.91;101898.97;689706;28;1248;-64
2021/03/24 00:29:14;;;;;;;11.57;8.23;;;;;;;7.42;63.04;101906.31;689226;28;38590;-63
2021/03/24 00:29:35;;;;;;;10.65;7.95;;;;;;;7.42;62.79;101901.78;689499;28;22170;-63
2021/03/24 00:29:57;;;;;;;11.80;7.97;;;;;;;7.43;63.00;101899.94;689870;28;23548;-62
2021/03/24 00:30:22;;;;;;;9.73;7.93;;;;;;;7.42;62.94;101903.63;689693;28;22246;-63
2021/03/24 00:30:45;;;;;;;10.70;8.02;;;;;;;7.42;62.88;101912.53;686824;28;99914;-63
2021/03/24 00:31:06;;;;;;;11.75;7.95;;;;;;;7.41;62.83;101905.44;687478;28;69594;-63
2021/03/24 00:31:27;;;;;;;11.77;8.13;;;;;;;7.39;63.03;101896.66;688614;28;22409;-64
2021/03/24 00:31:48;;;;;;;10.70;8.15;;;;;;;7.40;63.05;101906.44;690044;28;10604;-63
2021/03/24 00:32:09;;;;;;;11.52;8.35;;;;;;;7.39;63.02;101900.19;689772;28;14298;-64
2021/03/24 00:32:30;;;;;;;11.27;8.48;;;;;;;7.38;63.27;101903.88;688941;28;43794;-63
2021/03/24 00:32:52;;;;;;;10.90;7.95;;;;;;;7.37;63.00;101902.16;689608;28;23457;-63
2021/03/24 00:33:15;;;;;;;10.75;8.13;;;;;;;7.39;63.09;101902.88;688600;28;8469;-63
2021/03/24 00:33:37;;;;;;;11.60;8.32;;;;;;;7.39;63.04;101902.03;686907;28;90746;-63
2021/03/24 00:33:58;;;;;;;11.80;8.45;;;;;;;7.38;62.87;101901.19;689668;28;20471;-63
2021/03/24 00:34:19;;;;;;;10.68;8.18;;;;;;;7.40;63.01;101901.06;689887;28;15791;-63
2021/03/24 00:34:40;;;;;;;9.40;7.93;;;;;;;7.39;62.83;101902.03;689317;28;21450;-63
2021/03/24 00:35:01;;;;;;;9.90;8.07;;;;;;;7.37;63.03;101899.47;689393;28;21506;-63
2021/03/24 00:35:23;;;;;;;12.88;8.75;;;;;;;7.40;62.82;101899.22;689363;28;22470;-63
2021/03/24 00:35:44;;;;;;;10.88;8.32;;;;;;;7.40;62.71;101901.91;687912;28;45268;-62
2021/03/24 00:36:07;;;;;;;10.50;7.88;;;;;;;7.35;62.61;101890.69;689938;28;8134;-63
2021/03/24 00:36:28;;;;;;;11.40;8.10;;;;;;;7.40;62.83;101898.38;687904;28;64530;-63
2021/03/24 00:36:49;;;;;;;11.05;8.20;;;;;;;7.40;62.94;101899.22;689745;28;22361;-63
2021/03/24 00:37:10;;;;;;;10.52;7.78;;;;;;;7.40;62.96;101895.69;689775;28;1367;-63
2021/03/24 00:37:31;;;;;;;10.88;8.15;;;;;;;7.42;62.80;101907.16;686957;28;3719;-63
2021/03/24 00:37:53;;;;;;;11.55;8.05;;;;;;;7.39;62.57;101893.97;686898;28;7682;-63
2021/03/24 00:38:14;;;;;;;12.00;8.60;;;;;;;7.42;62.78;101906.31;686059;28;40530;-63
2021/03/24 00:38:36;;;;;;;11.32;8.40;;;;;;;7.40;62.69;101895.69;687554;28;1006;-63
2021/03/24 00:38:57;;;;;;;10.40;8.15;;;;;;;7.40;62.68;101896.53;686586;28;23397;-63
2021/03/24 00:39:18;;;;;;;9.75;7.80;;;;;;;7.41;63.00;101897.38;687642;28;11988;-63
2021/03/24 00:39:39;;;;;;;10.95;7.75;;;;;;;7.39;62.76;101896.66;689719;28;10885;-63
2021/03/24 00:40:00;;;;;;;12.15;8.52;;;;;;;7.38;62.83;101895.81;689796;28;22821;-63
2021/03/24 00:40:24;;;;;;;12.32;8.52;;;;;;;7.37;62.88;101888.72;689456;28;21555;-63
2021/03/24 00:40:47;;;;;;;10.77;8.20;;;;;;;7.40;62.75;101893.00;687054;28;93316;-64
2021/03/24 00:41:09;;;;;;;11.75;8.38;;;;;;;7.41;62.88;101892.00;684819;28;70191;-63
2021/03/24 00:41:30;;;;;;;13.00;8.10;;;;;;;7.39;62.92;101892.13;685765;28;44215;-62
2021/03/24 00:41:51;;;;;;;10.75;8.18;;;;;;;7.40;62.58;101893.00;687072;28;11590;-62
2021/03/24 00:42:12;;;;;;;10.57;8.20;;;;;;;7.39;62.96;101885.91;686700;28;23232;-63
2021/03/24 00:42:36;;;;;;;11.18;7.88;;;;;;;7.38;62.80;101889.56;686061;28;38820;-63
2021/03/24 00:42:59;;;;;;;12.23;8.07;;;;;;;7.38;62.78;101892.25;687776;28;22588;-62
2021/03/24 00:43:24;;;;;;;10.90;8.05;;;;;;;7.37;62.59;101887.88;688819;28;38688;-62
2021/03/24 00:43:45;;;;;;;10.80;7.88;;;;;;;7.36;62.82;101887.00;689155;28;30327;-62
2021/03/24 00:44:06;;;;;;;11.48;8.43;;;;;;;7.36;62.58;101891.53;686509;28;17150;-62
2021/03/24 00:44:28;;;;;;;11.80;8.32;;;;;;;7.36;62.71;101892.38;685856;28;31474;-62
2021/03/24 00:44:49;;;;;;;10.80;7.93;;;;;;;7.35;62.79;101885.31;687038;28;8844;-63
2021/03/24 00:45:11;;;;;;;11.07;8.27;;;;;;;7.35;62.75;101892.50;686744;28;13958;-62
2021/03/24 00:45:32;;;;;;;10.43;7.95;;;;;;;7.34;62.59;101883.59;685246;28;46316;-62
2021/03/24 00:45:54;;;;;;;10.00;7.90;;;;;;;7.33;62.89;101887.28;686917;28;23695;-62
2021/03/24 00:46:16;;;;;;;10.23;7.80;;;;;;;7.32;62.81;101885.59;688855;28;70092;-64
2021/03/24 00:46:37;;;;;;;8.95;7.35;;;;;;;7.33;62.68;101886.44;685828;28;23463;-62
2021/03/24 00:46:58;;;;;;;10.05;7.32;;;;;;;7.34;62.84;101888.16;686119;28;23721;-64
2021/03/24 00:47:19;;;;;;;12.05;8.07;;;;;;;7.34;62.78;101888.16;686630;28;21423;-64
2021/03/24 00:47:41;;;;;;;11.70;8.38;;;;;;;7.34;62.74;101894.34;686437;28;23366;-64
2021/03/24 00:48:03;;;;;;;11.43;8.10;;;;;;;7.35;62.87;101889.81;684792;28;62083;-64
2021/03/24 00:48:26;;;;;;;12.05;8.00;;;;;;;7.35;62.73;101884.44;686793;28;44404;-62
2021/03/24 00:48:47;;;;;;;11.73;8.50;;;;;;;7.30;62.87;101875.94;687039;28;69718;-64
2021/03/24 00:49:08;;;;;;;10.55;7.88;;;;;;;7.35;62.80;101889.81;688768;28;46231;-64
2021/03/24 00:49:30;;;;;;;11.15;8.13;;;;;;;7.35;62.70;101879.06;686294;28;23502;-64
2021/03/24 00:49:51;;;;;;;10.35;7.75;;;;;;;7.34;62.60;101888.16;685023;28;23480;-64
2021/03/24 00:50:15;;;;;;;12.00;8.00;;;;;;;7.35;62.72;101888.00;682491;28;22475;-63
2021/03/24 00:50:36;;;;;;;9.70;8.02;;;;;;;7.35;62.61;101887.13;679659;28;91727;-63
2021/03/24 00:50:58;;;;;;;10.55;8.48;;;;;;;7.35;62.59;101885.31;681986;28;46710;-63
2021/03/24 00:51:19;;;;;;;13.10;8.68;;;;;;;7.35;62.64;101879.06;682812;28;22533;-63
2021/03/24 00:51:40;;;;;;;11.20;7.70;;;;;;;7.36;62.73;101881.63;684160;28;23766;-63
2021/03/24 00:52:01;;;;;;;9.55;7.68;;;;;;;7.38;62.59;101881.50;686599;28;22243;-63
2021/03/24 00:52:23;;;;;;;10.20;7.60;;;;;;;7.37;62.67;101867.22;688494;28;44410;-63
2021/03/24 00:52:44;;;;;;;10.70;7.78;;;;;;;7.38;62.44;101876.13;688588;28;21519;-63
2021/03/24 00:53:05;;;;;;;10.18;7.43;;;;;;;7.38;62.65;101878.81;688667;28;45093;-63
2021/03/24 00:53:26;;;;;;;10.43;7.68;;;;;;;7.38;62.40;101874.31;689660;28;22375;-63
2021/03/24 00:53:48;;;;;;;11.65;7.85;;;;;;;7.39;62.57;101884.06;690031;28;1393;-63
2021/03/24 00:54:09;;;;;;;9.80;7.57;;;;;;;7.39;62.59;101883.22;689594;28;22495;-63
2021/03/24 00:54:30;;;;;;;9.85;7.53;;;;;;;7.40;62.64;101876.88;689765;28;21545;-64
2021/03/24 00:54:51;;;;;;;8.75;7.03;;;;;;;7.40;62.66;101884.94;689635;28;9525;-63
2021/03/24 00:55:13;;;;;;;10.98;7.65;;;;;;;7.42;62.22;101882.13;690201;28;6821;-64
2021/03/24 00:55:34;;;;;;;11.23;7.80;;;;;;;7.43;62.20;101879.31;687481;28;69415;-63
2021/03/24 00:55:56;;;;;;;10.55;8.10;;;;;;;7.42;62.54;101874.91;688977;28;21568;-62
2021/03/24 00:56:17;;;;;;;9.90;7.63;;;;;;;7.43;62.25;101878.44;689340;28;23328;-63
2021/03/24 00:56:38;;;;;;;10.70;7.55;;;;;;;7.42;62.45;101880.28;685801;28;22379;-64
2021/03/24 00:56:59;;;;;;;12.63;8.38;;;;;;;7.40;62.20;101869.66;686896;28;23509;-63
2021/03/24 00:57:20;;;;;;;11.32;8.05;;;;;;;7.41;62.31;101867.81;686426;28;22369;-64
2021/03/24 00:57:42;;;;;;;11.85;7.40;;;;;;;7.40;62.43;101876.88;686759;28;22214;-63
2021/03/24 00:58:04;;;;;;;10.90;7.57;;;;;;;7.39;62.19;101876.00;686047;28;33713;-62
2021/03/24 00:58:25;;;;;;;11.70;8.30;;;;;;;7.39;62.50;101876.00;686440;28;45430;-63
2021/03/24 00:58:46;;;;;;;11.10;7.85;;;;;;;7.39;62.54;101873.31;689346;28;22316;-63
2021/03/24 00:59:07;;;;;;;10.77;7.70;;;;;;;7.39;62.26;101876.00;689631;28;23619;-63
2021/03/24 00:59:29;;;;;;;12.05;8.05;;;;;;;7.40;62.37;101868.81;690434;28;1561;-62
2021/03/24 01:00:03;;;;;;;12.48;8.60;;;;;;;7.39;62.31;101872.47;686777;28;98292;-63
2021/03/24 01:00:27;;;;;;;10.00;7.78;;;;;;;7.38;62.39;101876.13;685799;28;116246;-63
2021/03/24 01:00:51;;;;;;;10.68;8.25;;;;;;;7.41;62.46;101875.88;686100;28;114980;-65
2021/03/24 01:01:12;;;;;;;10.85;8.15;;;;;;;7.41;62.36;101878.56;688759;28;46351;-64
2021/03/24 01:01:33;;;;;;;10.05;7.88;;;;;;;7.40;62.36;101880.41;689453;28;18927;-64
2021/03/24 01:01:55;;;;;;;11.02;7.60;;;;;;;7.40;62.21;101876.88;689473;28;23575;-63
2021/03/24 01:02:16;;;;;;;10.40;7.60;;;;;;;7.39;62.10;101875.16;688828;28;38516;-63
2021/03/24 01:02:37;;;;;;;10.73;7.70;;;;;;;7.40;62.32;101880.41;689683;28;23522;-63
2021/03/24 01:02:58;;;;;;;9.95;7.20;;;;;;;7.38;62.16;101878.81;689772;28;22217;-63
2021/03/24 01:03:20;;;;;;;11.75;7.75;;;;;;;7.39;62.34;101873.31;688989;28;22401;-63
2021/03/24 01:03:41;;;;;;;11.80;8.63;;;;;;;7.40;62.30;101875.03;689116;28;29823;-62
2021/03/24 01:04:02;;;;;;;9.20;7.60;;;;;;;7.42;62.08;101882.13;689363;28;19731;-63
2021/03/24 01:04:23;;;;;;;10.60;8.00;;;;;;;7.42;62.35;101880.28;686048;28;21509;-63
2021/03/24 01:04:44;;;;;;;10.20;8.15;;;;;;;7.38;62.30;101877.00;686159;28;28391;-64
2021/03/24 01:05:08;;;;;;;11.45;7.78;;;;;;;7.41;62.25;101878.56;686668;28;23016;-63
2021/03/24 01:05:32;;;;;;;11.10;7.88;;;;;;;7.43;61.97;101871.25;684534;28;60850;-63
2021/03/24 01:05:54;;;;;;;9.43;7.72;;;;;;;7.42;61.96;101874.06;685376;28;45263;-63
2021/03/24 01:06:15;;;;;;;10.18;7.57;;;;;;;7.40;61.99;101872.34;688010;28;23543;-63
2021/03/24 01:06:36;;;;;;;11.77;8.07;;;;;;;7.40;62.18;101868.81;689312;28;23559;-63
2021/03/24 01:06:58;;;;;;;11.80;7.75;;;;;;;7.39;62.27;101877.84;689723;28;16042;-63
2021/03/24 01:07:19;;;;;;;9.90;7.60;;;;;;;7.39;62.23;101872.47;688638;28;46379;-63
2021/03/24 01:07:41;;;;;;;10.48;7.60;;;;;;;7.37;62.13;101872.59;689646;28;22400;-64
2021/03/24 01:08:05;;;;;;;9.65;7.43;;;;;;;7.36;62.20;101873.56;688526;28;44306;-63
2021/03/24 01:08:27;;;;;;;7.82;6.78;;;;;;;7.36;62.31;101881.63;686070;28;115124;-63
2021/03/24 01:08:48;;;;;;;8.80;6.88;;;;;;;7.34;62.49;101874.69;689470;28;16777;-63
2021/03/24 01:09:09;;;;;;;9.38;7.10;;;;;;;7.33;62.47;101871.13;689551;28;24303;-62
2021/03/24 01:09:30;;;;;;;8.73;7.00;;;;;;;7.34;62.37;101872.00;688808;28;44379;-63
2021/03/24 01:09:52;;;;;;;9.15;7.43;;;;;;;7.33;62.42;101871.13;689133;28;22467;-63
2021/03/24 01:10:16;;;;;;;11.38;8.00;;;;;;;7.35;62.70;101877.25;690352;28;21546;-64
2021/03/24 01:10:39;;;;;;;11.30;7.28;;;;;;;7.35;62.50;101876.38;688380;28;38905;-64
2021/03/24 01:11:01;;;;;;;10.40;7.68;;;;;;;7.35;62.15;101877.25;690360;28;1958;-64
2021/03/24 01:11:23;;;;;;;10.00;8.32;;;;;;;7.37;62.16;101877.13;687666;28;68475;-63
2021/03/24 01:11:44;;;;;;;9.60;7.45;;;;;;;7.38;62.28;101873.44;689385;28;19259;-64
2021/03/24 01:12:06;;;;;;;9.38;7.07;;;;;;;7.37;62.21;101877.13;688895;28;22348;-64
2021/03/24 01:12:27;;;;;;;11.27;7.90;;;;;;;7.37;61.99;101877.13;687855;28;67505;-64
2021/03/24 01:12:48;;;;;;;11.00;7.43;;;;;;;7.38;62.22;101871.63;689005;28;14490;-63
2021/03/24 01:13:13;;;;;;;9.97;7.70;;;;;;;7.36;62.24;101868.19;690066;28;1431;-63
2021/03/24 01:13:34;;;;;;;11.00;7.55;;;;;;;7.37;62.30;101869.91;687636;28;81430;-64
2021/03/24 01:13:55;;;;;;;10.60;7.70;;;;;;;7.37;62.10;101866.38;688665;28;19732;-64
2021/03/24 01:14:17;;;;;;;9.75;7.47;;;;;;;7.35;62.25;101871.88;689784;28;10358;-64
2021/03/24 01:14:38;;;;;;;12.30;7.90;;;;;;;7.36;62.21;101865.50;688257;28;47475;-64
2021/03/24 01:14:59;;;;;;;9.90;7.60;;;;;;;7.37;62.34;101869.06;688614;28;23601;-63
2021/03/24 01:15:21;;;;;;;8.05;7.15;;;;;;;7.38;62.08;101871.63;689709;28;6012;-64
2021/03/24 01:15:42;;;;;;;10.82;7.72;;;;;;;7.36;61.92;101861.97;687891;28;44403;-64
2021/03/24 01:16:04;;;;;;;11.73;8.43;;;;;;;7.37;62.18;101871.75;688194;28;24100;-63
2021/03/24 01:16:25;;;;;;;9.88;7.80;;;;;;;7.36;61.98;101872.72;688697;28;46328;-63
2021/03/24 01:16:46;;;;;;;9.05;7.43;;;;;;;7.35;62.02;101865.63;689349;28;22431;-63
2021/03/24 01:17:08;;;;;;;8.38;6.70;;;;;;;7.33;62.20;101873.81;690318;28;3636;-64
2021/03/24 01:17:29;;;;;;;8.52;6.72;;;;;;;7.33;62.29;101871.13;687533;28;46287;-63
2021/03/24 01:17:52;;;;;;;12.07;7.65;;;;;;;7.34;62.24;101869.31;686782;28;1663;-63
2021/03/24 01:18:15;;;;;;;9.50;7.40;;;;;;;7.33;62.09;101865.78;687068;28;1785;-64
2021/03/24 01:18:36;;;;;;;9.43;7.43;;;;;;;7.33;62.18;101867.59;687396;28;1743;-64
2021/03/24 01:18:58;;;;;;;10.13;7.63;;;;;;;7.32;62.22;101869.47;685714;28;46307;-63
2021/03/24 01:19:19;;;;;;;9.80;7.78;;;;;;;7.33;62.17;101860.38;683980;28;24435;-62
2021/03/24 01:19:40;;;;;;;10.02;7.93;;;;;;;7.33;62.19;101864.94;684998;28;22740;-64
2021/03/24 01:20:01;;;;;;;8.73;7.45;;;;;;;7.32;62.44;101869.47;686794;28;20189;-63
2021/03/24 01:20:25;;;;;;;9.48;7.40;;;;;;;7.32;62.18;101868.59;686546;28;23533;-64
2021/03/24 01:20:47;;;;;;;9.85;7.18;;;;;;;7.33;62.39;101870.31;684227;28;92226;-62
2021/03/24 01:21:08;;;;;;;10.30;7.65;;;;;;;7.34;62.27;101869.31;687318;28;18848;-63
2021/03/24 01:21:29;;;;;;;10.30;7.97;;;;;;;7.34;62.22;101872.84;689139;28;21547;-63
2021/03/24 01:21:51;;;;;;;10.63;7.75;;;;;;;7.32;62.30;101860.53;688404;28;45276;-64
2021/03/24 01:22:12;;;;;;;10.60;7.50;;;;;;;7.33;62.09;101871.13;689355;28;23326;-64
2021/03/24 01:22:33;;;;;;;10.35;7.60;;;;;;;7.34;62.23;101877.38;689014;28;23447;-63
2021/03/24 01:22:55;;;;;;;11.98;7.65;;;;;;;7.34;62.34;101869.31;686452;28;22435;-63
2021/03/24 01:23:16;;;;;;;12.90;7.75;;;;;;;7.36;62.20;101872.72;685582;28;44262;-63
2021/03/24 01:23:38;;;;;;;13.32;8.10;;;;;;;7.37;62.13;101872.59;686504;28;22396;-64
2021/03/24 01:23:59;;;;;;;12.93;8.00;;;;;;;7.36;62.32;101870.03;685954;28;41130;-63
2021/03/24 01:24:20;;;;;;;10.73;7.80;;;;;;;7.36;62.01;101870.88;686274;28;22333;-63
2021/03/24 01:24:41;;;;;;;10.43;7.82;;;;;;;7.37;62.34;101875.28;687086;28;4695;-64
2021/03/24 01:25:03;;;;;;;10.63;8.10;;;;;;;7.37;62.08;101872.59;688182;28;43393;-64
2021/03/24 01:25:25;;;;;;;11.07;8.15;;;;;;;7.35;62.17;101862.94;688642;28;44486;-64
2021/03/24 01:25:46;;;;;;;9.82;7.47;;;;;;;7.37;62.10;101866.38;688063;28;45203;-63
2021/03/24 01:26:08;;;;;;;10.60;7.60;;;;;;;7.37;62.20;101867.22;689346;28;21525;-64
2021/03/24 01:26:30;;;;;;;10.13;7.82;;;;;;;7.37;62.12;101869.91;689816;28;13546;-64
2021/03/24 01:26:53;;;;;;;10.30;8.20;;;;;;;7.37;62.10;101861.84;689743;28;1625;-63
2021/03/24 01:27:15;;;;;;;9.55;7.38;;;;;;;7.36;62.13;101862.81;690251;28;1490;-63
2021/03/24 01:27:36;;;;;;;10.18;7.63;;;;;;;7.36;62.06;101860.13;689042;28;1708;-63
2021/03/24 01:28:04;;;;;;;11.10;7.63;;;;;;;7.37;62.19;101867.22;688873;28;38383;-63
2021/03/24 01:28:28;;;;;;;9.07;7.50;;;;;;;7.38;61.90;101854.63;686988;28;93246;-63
2021/03/24 01:28:57;;;;;;;11.85;8.38;;;;;;;7.38;61.90;101866.25;687504;28;78853;-63
2021/03/24 01:29:18;;;;;;;11.13;8.27;;;;;;;7.39;62.07;101861.72;684144;28;160654;-63
2021/03/24 01:29:39;;;;;;;11.23;8.18;;;;;;;7.39;61.99;101867.09;688756;28;43007;-64
2021/03/24 01:30:01;;;;;;;11.23;8.05;;;;;;;7.40;61.89;101866.97;688826;28;22394;-63
2021/03/24 01:30:24;;;;;;;11.35;8.13;;;;;;;7.42;62.02;101872.22;689410;28;22413;-64
2021/03/24 01:30:45;;;;;;;11.48;7.90;;;;;;;7.42;61.72;101863.31;687759;28;48576;-64
2021/03/24 01:31:06;;;;;;;11.65;8.13;;;;;;;7.40;61.72;101868.81;689210;28;21864;-62
2021/03/24 01:31:29;;;;;;;11.55;8.05;;;;;;;7.42;61.92;101871.38;688749;28;18117;-62
2021/03/24 01:31:50;;;;;;;10.18;7.50;;;;;;;7.42;61.92;101871.38;688000;28;67115;-63
2021/03/24 01:32:11;;;;;;;9.98;7.72;;;;;;;7.42;62.07;101868.69;686425;28;19593;-64
2021/03/24 01:32:33;;;;;;;11.10;7.82;;;;;;;7.39;61.99;101867.09;686578;28;23044;-64
2021/03/24 01:32:55;;;;;;;11.80;8.00;;;;;;;7.41;62.24;101870.50;686394;28;32921;-64
2021/03/24 01:33:16;;;;;;;10.98;8.13;;;;;;;7.40;62.14;101869.66;686723;28;25804;-64
2021/03/24 01:33:37;;;;;;;11.38;7.70;;;;;;;7.39;61.95;101867.09;687367;28;6803;-62
2021/03/24 01:33:59;;;;;;;10.40;7.72;;;;;;;7.40;62.08;101868.81;687932;28;5749;-64
2021/03/24 01:34:20;;;;;;;9.82;7.72;;;;;;;7.37;62.25;101866.38;689253;28;1785;-65
2021/03/24 01:34:44;;;;;;;10.10;7.68;;;;;;;7.36;62.22;101864.66;690291;28;1728;-64
2021/03/24 01:35:07;;;;;;;9.60;7.57;;;;;;;7.34;62.22;101862.09;687465;28;67371;-64
2021/03/24 01:35:28;;;;;;;10.35;7.07;;;;;;;7.35;62.21;101865.63;687809;28;69429;-62
2021/03/24 01:35:53;;;;;;;10.57;7.43;;;;;;;7.34;62.29;101862.09;689166;28;15667;-63
2021/03/24 01:36:15;;;;;;;11.20;7.93;;;;;;;7.33;62.24;101868.44;688267;28;46378;-64
2021/03/24 01:36:36;;;;;;;12.35;7.53;;;;;;;7.32;62.02;101860.53;689725;28;6618;-65
2021/03/24 01:36:57;;;;;;;9.45;7.20;;;;;;;7.33;62.26;101864.94;689234;28;22335;-64
2021/03/24 01:37:18;;;;;;;9.80;7.47;;;;;;;7.31;62.59;101870.44;689473;28;20895;-64
2021/03/24 01:37:40;;;;;;;9.88;7.70;;;;;;;7.31;62.41;101865.06;689028;28;22464;-64
2021/03/24 01:38:01;;;;;;;12.38;8.27;;;;;;;7.31;62.51;101867.75;688782;28;35743;-64
2021/03/24 01:38:22;;;;;;;12.38;8.40;;;;;;;7.32;62.55;101868.59;689580;28;22484;-64
2021/03/24 01:38:43;;;;;;;10.48;7.60;;;;;;;7.30;62.52;101866.03;689638;28;20734;-64
2021/03/24 01:39:06;;;;;;;12.25;7.63;;;;;;;7.30;62.27;101871.41;689988;28;9626;-64
2021/03/24 01:39:27;;;;;;;12.07;8.07;;;;;;;7.30;62.56;101876.78;688187;28;46405;-63
2021/03/24 01:39:48;;;;;;;10.60;8.15;;;;;;;7.29;62.35;101866.16;688610;28;23096;-64
2021/03/24 01:40:12;;;;;;;10.57;7.80;;;;;;;7.30;62.44;101874.09;690151;28;1951;-64
2021/03/24 01:40:35;;;;;;;10.30;7.53;;;;;;;7.28;62.32;101862.63;687328;28;80872;-64
2021/03/24 01:41:00;;;;;;;10.13;7.30;;;;;;;7.30;62.48;101870.56;687486;28;63965;-64
2021/03/24 01:41:24;;;;;;;8.55;6.88;;;;;;;7.29;62.42;101866.16;686335;28;109130;-63
2021/03/24 01:41:45;;;;;;;8.55;7.07;;;;;;;7.29;62.39;101871.53;684146;28;75111;-63
2021/03/24 01:42:08;;;;;;;11.50;7.53;;;;;;;7.29;62.53;101869.72;686757;28;12478;-63
2021/03/24 01:42:30;;;;;;;12.10;7.80;;;;;;;7.29;62.40;101864.34;685876;28;48726;-64
2021/03/24 01:42:53;;;;;;;10.18;8.02;;;;;;;7.29;62.41;101871.53;682701;28;46272;-63
2021/03/24 01:43:20;;;;;;;11.88;8.27;;;;;;;7.30;62.42;101871.41;684732;28;1964;-64
2021/03/24 01:43:42;;;;;;;11.15;7.55;;;;;;;7.28;62.45;101859.09;682327;28;120490;-64